Time;durP1;ratioP1;P1;durP2;ratioP2;P2;SDS_P1;SDS_P2;PMS_P1;PMS_P2;Temp;Humidity;BMP_temperature;BMP_pressure;BME280_temperature;BME280_humidity;BME280_pressure;Samples;Min_cycle;Max_cycle;Signal;HPM_P1;HPM_P2
2022/03/23 00:00:01;;;;;;;11.27;3.45;;;24.70;99.90;;;;;;5094026;28;20026;-79
2022/03/23 00:02:29;;;;;;;12.40;4.20;;;24.60;99.90;;;;;;5094024;28;20491;-79
2022/03/23 00:04:56;;;;;;;9.85;3.33;;;24.40;99.90;;;;;;5091366;28;20016;-79
2022/03/23 00:07:24;;;;;;;11.65;3.65;;;24.50;99.90;;;;;;5094112;28;20020;-78
2022/03/23 00:09:51;;;;;;;11.18;4.20;;;24.40;99.90;;;;;;5092962;28;20030;-79
2022/03/23 00:12:19;;;;;;;11.18;3.58;;;24.50;99.90;;;;;;5093966;28;20024;-78
2022/03/23 00:14:46;;;;;;;12.88;4.35;;;24.70;99.90;;;;;;5094342;28;20035;-79
2022/03/23 00:17:14;;;;;;;13.10;4.07;;;25.30;99.90;;;;;;5093047;28;20073;-79
2022/03/23 00:19:42;;;;;;;14.07;3.58;;;25.10;99.90;;;;;;5093470;28;20027;-77
2022/03/23 00:22:09;;;;;;;13.52;3.60;;;24.80;99.90;;;;;;5092516;28;20016;-79
2022/03/23 00:24:36;;;;;;;12.20;3.67;;;24.70;99.90;;;;;;5093392;28;20021;-81
2022/03/23 00:27:04;;;;;;;16.55;3.60;;;24.60;99.90;;;;;;5093201;28;20051;-79
2022/03/23 00:29:31;;;;;;;13.88;4.25;;;24.40;99.90;;;;;;5092884;28;20425;-80
2022/03/23 00:31:59;;;;;;;20.48;4.22;;;24.30;99.90;;;;;;5093315;28;20396;-79
2022/03/23 00:34:26;;;;;;;11.80;3.08;;;24.00;99.90;;;;;;5092510;28;20488;-78
2022/03/23 00:36:53;;;;;;;10.18;3.08;;;24.10;99.90;;;;;;5092998;28;20452;-78
2022/03/23 00:39:22;;;;;;;11.55;2.90;;;24.20;99.90;;;;;;5092217;28;20028;-79
2022/03/23 00:41:50;;;;;;;13.35;3.40;;;24.30;99.90;;;;;;5092962;28;20028;-79
2022/03/23 00:44:18;;;;;;;13.85;3.10;;;24.20;99.90;;;;;;5093303;28;20065;-79
2022/03/23 00:46:45;;;;;;;12.52;2.95;;;24.10;99.90;;;;;;5092995;28;20427;-79
2022/03/23 00:49:12;;;;;;;13.30;3.63;;;24.20;99.90;;;;;;5093669;28;20027;-80
2022/03/23 00:51:40;;;;;;;10.80;3.17;;;24.30;99.90;;;;;;5094386;28;20028;-78
2022/03/23 00:54:09;;;;;;;7.90;2.45;;;24.20;99.90;;;;;;5096858;28;20027;-78
2022/03/23 00:56:38;;;;;;;11.35;3.40;;;24.20;99.90;;;;;;5098303;28;20062;-79
2022/03/23 00:59:07;;;;;;;12.85;3.40;;;24.30;99.90;;;;;;5093514;28;20039;-79
2022/03/23 01:01:35;;;;;;;11.05;3.00;;;24.30;99.90;;;;;;5102577;28;20023;-79
2022/03/23 01:04:02;;;;;;;9.15;2.97;;;24.20;99.90;;;;;;5110608;28;20020;-80
2022/03/23 01:06:30;;;;;;;12.43;3.35;;;24.20;99.90;;;;;;5106524;28;20392;-80
2022/03/23 01:08:57;;;;;;;10.35;3.00;;;24.30;99.90;;;;;;5105871;28;20027;-81
2022/03/23 01:11:24;;;;;;;10.15;3.42;;;24.40;99.90;;;;;;5103659;28;20053;-80
2022/03/23 01:13:52;;;;;;;10.80;3.03;;;24.50;99.90;;;;;;5101016;28;20032;-80
2022/03/23 01:16:19;;;;;;;9.25;2.95;;;24.60;99.90;;;;;;5098553;28;20024;-81
2022/03/23 01:18:47;;;;;;;13.65;3.50;;;24.60;99.90;;;;;;5103050;28;20030;-80
2022/03/23 01:21:14;;;;;;;9.38;3.03;;;24.60;99.90;;;;;;5104693;28;20056;-78
2022/03/23 01:23:42;;;;;;;9.80;3.25;;;24.70;99.90;;;;;;5099454;28;20031;-78
2022/03/23 01:26:09;;;;;;;9.75;3.10;;;24.60;99.90;;;;;;5097214;28;20043;-78
2022/03/23 01:28:37;;;;;;;10.85;3.28;;;24.50;99.90;;;;;;5097060;28;20438;-79
2022/03/23 01:31:05;;;;;;;10.07;3.28;;;24.50;99.90;;;;;;5095335;28;20055;-78
2022/03/23 01:33:33;;;;;;;10.45;4.50;;;24.60;99.90;;;;;;5078365;28;20032;-79
2022/03/23 01:36:01;;;;;;;15.57;5.32;;;24.70;99.90;;;;;;5096949;28;20561;-79
2022/03/23 01:38:28;;;;;;;12.88;4.13;;;24.80;99.90;;;;;;5095766;28;20150;-77
2022/03/23 01:40:56;;;;;;;11.50;4.38;;;24.80;99.90;;;;;;5094814;28;20031;-78
2022/03/23 01:43:24;;;;;;;11.80;4.70;;;24.80;99.90;;;;;;5094871;28;20024;-79
2022/03/23 01:45:52;;;;;;;17.02;8.32;;;24.90;99.90;;;;;;5095336;28;20016;-79
2022/03/23 01:48:20;;;;;;;9.45;4.75;;;25.00;99.90;;;;;;5094633;28;20030;-79
2022/03/23 01:50:47;;;;;;;19.35;11.82;;;24.80;99.90;;;;;;5094547;28;20032;-79
2022/03/23 01:53:15;;;;;;;15.07;9.80;;;24.60;99.90;;;;;;5095851;28;20028;-79
2022/03/23 01:55:42;;;;;;;15.20;8.75;;;24.40;99.90;;;;;;5094422;28;20401;-79
2022/03/23 01:58:10;;;;;;;24.35;17.60;;;24.40;99.90;;;;;;5094541;28;20077;-79
2022/03/23 02:00:38;;;;;;;20.50;14.80;;;24.60;99.90;;;;;;5095611;28;20077;-79
2022/03/23 02:03:05;;;;;;;12.27;6.68;;;24.80;99.90;;;;;;5094422;28;20027;-79
2022/03/23 02:05:32;;;;;;;14.93;5.38;;;24.80;99.90;;;;;;5095492;28;20027;-79
2022/03/23 02:08:00;;;;;;;18.67;9.65;;;24.80;99.90;;;;;;5095723;28;20104;-79
2022/03/23 02:10:28;;;;;;;17.00;4.40;;;24.60;99.90;;;;;;5094243;28;20020;-79
2022/03/23 02:12:55;;;;;;;13.35;5.35;;;24.30;99.90;;;;;;5095308;28;20103;-80
2022/03/23 02:15:25;;;;;;;14.52;5.35;;;24.20;99.90;;;;;;5100179;28;20024;-79
2022/03/23 02:17:56;;;;;;;14.65;7.72;;;24.20;99.90;;;;;;5095740;28;20077;-78
2022/03/23 02:20:24;;;;;;;13.00;5.15;;;24.60;99.90;;;;;;5094123;28;20059;-80
2022/03/23 02:22:52;;;;;;;16.13;7.63;;;24.80;99.90;;;;;;5094764;28;20020;-82
2022/03/23 02:25:30;;;;;;;12.52;6.80;;;25.00;99.90;;;;;;5095703;28;20031;-80
2022/03/23 02:27:57;;;;;;;12.13;5.05;;;25.40;99.90;;;;;;5094362;28;20046;-79
2022/03/23 02:30:25;;;;;;;11.32;4.32;;;25.50;99.90;;;;;;5095291;28;20030;-80
2022/03/23 02:32:52;;;;;;;14.70;4.90;;;25.40;99.90;;;;;;5097334;28;20055;-83
2022/03/23 02:35:20;;;;;;;11.65;4.05;;;25.20;99.90;;;;;;5094823;28;20116;-80
2022/03/23 02:37:47;;;;;;;9.88;3.45;;;25.20;99.90;;;;;;5093864;28;20475;-80
2022/03/23 02:40:14;;;;;;;14.82;3.85;;;25.00;99.90;;;;;;5096449;28;20055;-82
2022/03/23 02:42:42;;;;;;;12.55;4.18;;;24.70;99.90;;;;;;5097702;28;20024;-79
2022/03/23 02:45:14;;;;;;;16.00;4.85;;;24.40;99.90;;;;;;5095760;28;20054;-79
2022/03/23 02:47:44;;;;;;;11.52;3.25;;;24.30;99.90;;;;;;5093891;28;20075;-81
2022/03/23 02:50:11;;;;;;;13.73;3.33;;;24.30;99.90;;;;;;5093922;28;20047;-80
2022/03/23 03:01:52;;;;;;;12.68;3.88;;;24.40;99.90;;;;;;5094728;28;20035;-79
2022/03/23 03:04:03;;;;;;;10.57;2.92;;;24.30;99.90;;;;;;5094444;28;20554;-80
2022/03/23 03:06:31;;;;;;;11.02;3.33;;;24.40;99.90;;;;;;5094467;28;20069;-80
2022/03/23 03:08:58;;;;;;;8.02;2.83;;;24.20;99.90;;;;;;5093248;28;20337;-80
2022/03/23 03:11:26;;;;;;;13.55;2.85;;;24.00;99.90;;;;;;5093387;28;20035;-79
2022/03/23 03:13:53;;;;;;;5.30;2.45;;;23.90;99.90;;;;;;5093006;28;20020;-80
2022/03/23 03:16:21;;;;;;;9.25;2.45;;;23.80;99.90;;;;;;5092881;28;20032;-80
2022/03/23 03:18:49;;;;;;;14.70;2.70;;;23.70;99.90;;;;;;5093018;28;20093;-80
2022/03/23 03:21:17;;;;;;;11.45;2.55;;;23.50;99.90;;;;;;5093971;28;20024;-80
2022/03/23 03:23:46;;;;;;;11.88;2.95;;;23.50;99.90;;;;;;5094037;28;20111;-80
2022/03/23 03:26:15;;;;;;;11.35;1.83;;;23.60;99.90;;;;;;5092547;28;20020;-80
2022/03/23 03:28:43;;;;;;;6.45;1.90;;;23.60;99.90;;;;;;5093796;28;20415;-80
2022/03/23 03:31:13;;;;;;;10.00;2.47;;;23.70;99.90;;;;;;5095938;28;20024;-80
2022/03/23 03:33:41;;;;;;;5.57;1.93;;;23.90;99.90;;;;;;5098077;28;20020;-81
2022/03/23 03:36:10;;;;;;;9.88;2.22;;;23.80;99.90;;;;;;5093204;28;20074;-80
2022/03/23 03:38:38;;;;;;;8.23;2.75;;;23.80;99.90;;;;;;5094209;28;20078;-80
2022/03/23 03:41:06;;;;;;;10.07;1.80;;;23.60;99.90;;;;;;5092724;28;20028;-81
2022/03/23 03:43:34;;;;;;;11.05;2.28;;;23.50;99.90;;;;;;5093723;28;20039;-79
2022/03/23 03:46:08;;;;;;;13.75;2.53;;;23.50;99.90;;;;;;5099670;28;20155;-79
2022/03/23 03:48:37;;;;;;;9.43;2.00;;;23.70;99.90;;;;;;5095098;28;20020;-79
2022/03/23 03:51:08;;;;;;;10.68;2.17;;;23.50;99.90;;;;;;5093460;28;20036;-80
2022/03/23 03:53:36;;;;;;;11.80;2.15;;;23.50;99.90;;;;;;5092133;28;20078;-80
2022/03/23 03:56:04;;;;;;;13.75;2.67;;;23.80;99.90;;;;;;5093490;28;20042;-79
2022/03/23 03:58:31;;;;;;;10.80;2.30;;;24.00;99.90;;;;;;5092761;28;20477;-80
2022/03/23 04:00:59;;;;;;;14.65;2.47;;;24.10;99.90;;;;;;5093445;28;20020;-80
2022/03/23 04:03:26;;;;;;;11.75;2.13;;;24.10;99.90;;;;;;5091895;28;20032;-81
2022/03/23 04:05:53;;;;;;;11.23;2.00;;;24.10;99.90;;;;;;5093280;28;20027;-81
2022/03/23 04:08:21;;;;;;;10.73;2.58;;;24.10;99.90;;;;;;5091814;28;20085;-80
2022/03/23 04:10:48;;;;;;;8.50;2.08;;;23.90;99.90;;;;;;5091909;28;20058;-81
2022/03/23 04:13:15;;;;;;;10.27;2.03;;;23.90;99.90;;;;;;5092771;28;20384;-80
2022/03/23 04:15:43;;;;;;;9.88;2.00;;;23.80;99.90;;;;;;5093901;28;20020;-79
2022/03/23 04:18:10;;;;;;;9.07;2.28;;;23.90;99.90;;;;;;5093849;28;20472;-79
2022/03/23 04:20:38;;;;;;;13.77;2.67;;;23.80;99.90;;;;;;5092329;28;20035;-79
2022/03/23 04:23:05;;;;;;;6.75;1.55;;;23.80;99.90;;;;;;5096629;28;20028;-79
2022/03/23 04:25:32;;;;;;;9.30;2.00;;;23.70;99.90;;;;;;5096611;28;20028;-79
2022/03/23 04:28:00;;;;;;;8.23;2.00;;;23.60;99.90;;;;;;5096283;28;20017;-80
2022/03/23 04:30:33;;;;;;;10.05;1.90;;;23.40;99.90;;;;;;5093515;28;20020;-78
2022/03/23 04:33:01;;;;;;;6.57;1.50;;;23.30;99.90;;;;;;5100912;28;20027;-78
2022/03/23 04:35:28;;;;;;;8.82;2.13;;;23.20;99.90;;;;;;5096502;28;20036;-80
2022/03/23 04:37:56;;;;;;;9.23;1.52;;;23.10;99.90;;;;;;5095368;28;20059;-80
2022/03/23 04:40:24;;;;;;;7.07;2.08;;;23.10;99.90;;;;;;5099284;28;20020;-80
2022/03/23 04:42:52;;;;;;;9.18;2.00;;;23.20;99.90;;;;;;5102936;28;20020;-78
2022/03/23 04:45:20;;;;;;;10.13;2.05;;;23.20;99.90;;;;;;5108847;28;20036;-78
2022/03/23 04:47:47;;;;;;;5.70;1.42;;;23.20;99.90;;;;;;5103123;28;20016;-77
2022/03/23 04:50:16;;;;;;;9.30;1.70;;;23.20;99.90;;;;;;5106445;28;20024;-78
2022/03/23 04:52:45;;;;;;;9.40;1.80;;;23.20;99.90;;;;;;5108991;28;20027;-76
2022/03/23 04:55:15;;;;;;;11.48;2.38;;;23.30;99.90;;;;;;5094683;28;20035;-77
2022/03/23 04:57:43;;;;;;;8.85;1.95;;;23.20;99.90;;;;;;5098976;28;20447;-77
2022/03/23 05:00:13;;;;;;;12.05;1.70;;;23.20;99.90;;;;;;5103580;28;20093;-77
2022/03/23 05:02:42;;;;;;;9.43;2.20;;;23.20;99.90;;;;;;5107267;22;21627;-77
2022/03/23 05:05:11;;;;;;;9.15;1.70;;;23.40;99.90;;;;;;5069514;28;20075;-78
2022/03/23 05:07:39;;;;;;;7.82;1.90;;;23.50;99.90;;;;;;5060741;28;20088;-78
2022/03/23 05:10:08;;;;;;;9.05;1.60;;;23.50;99.90;;;;;;5064753;28;20028;-79
2022/03/23 05:12:37;;;;;;;11.07;2.47;;;23.40;99.90;;;;;;5058844;28;20032;-78
2022/03/23 05:15:06;;;;;;;8.70;1.67;;;23.40;99.90;;;;;;5060679;28;20039;-78
2022/03/23 05:17:37;;;;;;;12.43;2.33;;;23.40;99.90;;;;;;5063188;28;20031;-78
2022/03/23 05:20:05;;;;;;;7.43;1.58;;;23.20;99.90;;;;;;5063976;28;20032;-78
2022/03/23 05:22:33;;;;;;;7.13;1.67;;;23.00;99.90;;;;;;5058001;28;20029;-79
2022/03/23 05:25:01;;;;;;;10.07;1.90;;;23.00;99.90;;;;;;5061447;28;20056;-77
2022/03/23 05:27:32;;;;;;;8.77;1.73;;;22.80;99.90;;;;;;5061404;28;20017;-78
2022/03/23 05:29:59;;;;;;;7.97;1.35;;;22.70;99.90;;;;;;5065735;28;20040;-78
2022/03/23 05:32:26;;;;;;;10.52;1.55;;;22.60;99.90;;;;;;5064320;28;20102;-78
2022/03/23 05:34:54;;;;;;;10.68;1.70;;;22.60;99.90;;;;;;5062896;28;20055;-79
2022/03/23 05:37:21;;;;;;;7.68;1.63;;;22.60;99.90;;;;;;5064005;28;20017;-78
2022/03/23 05:39:49;;;;;;;10.15;2.47;;;22.50;99.90;;;;;;5064009;28;20029;-77
2022/03/23 05:42:16;;;;;;;11.68;1.77;;;22.50;99.90;;;;;;5062905;28;20089;-78
2022/03/23 05:44:45;;;;;;;7.03;1.73;;;22.50;99.90;;;;;;5064539;28;20021;-78
2022/03/23 05:47:12;;;;;;;11.27;1.77;;;22.50;99.90;;;;;;5060846;28;20481;-78
2022/03/23 05:49:40;;;;;;;10.82;1.58;;;22.50;99.90;;;;;;5063622;28;20033;-78
2022/03/23 05:52:07;;;;;;;7.35;1.27;;;22.50;99.90;;;;;;5053100;28;20086;-79
2022/03/23 05:54:35;;;;;;;8.82;1.70;;;22.40;99.90;;;;;;5053028;28;20029;-78
2022/03/23 05:57:04;;;;;;;8.23;1.80;;;22.40;99.90;;;;;;5061485;28;20078;-78
2022/03/23 05:59:32;;;;;;;11.32;1.73;;;22.40;99.90;;;;;;5056958;28;20119;-78
2022/03/23 06:02:00;;;;;;;8.93;1.70;;;22.40;99.90;;;;;;5061466;28;20032;-78
2022/03/23 06:04:27;;;;;;;9.55;1.67;;;22.50;99.90;;;;;;5062882;28;20073;-78
2022/03/23 06:06:55;;;;;;;8.05;1.50;;;22.50;99.90;;;;;;5064354;28;20021;-79
2022/03/23 06:09:23;;;;;;;10.43;1.55;;;22.40;99.90;;;;;;5063990;28;20032;-78
2022/03/23 06:11:51;;;;;;;10.35;2.38;;;22.40;99.90;;;;;;5064301;28;20091;-78
2022/03/23 06:14:18;;;;;;;11.85;1.85;;;22.40;99.90;;;;;;5063228;28;20036;-79
2022/03/23 06:16:45;;;;;;;10.30;1.77;;;22.30;99.90;;;;;;5065666;28;20027;-79
2022/03/23 06:19:13;;;;;;;10.02;2.63;;;22.30;99.90;;;;;;5064055;28;20553;-78
2022/03/23 06:21:41;;;;;;;8.57;1.67;;;22.20;99.90;;;;;;5063080;28;20036;-77
2022/03/23 06:24:09;;;;;;;10.70;2.20;;;22.20;99.90;;;;;;5058277;28;20013;-78
2022/03/23 06:26:36;;;;;;;10.55;2.20;;;22.10;99.90;;;;;;5055714;28;20021;-79
2022/03/23 06:29:04;;;;;;;8.38;2.10;;;22.10;99.90;;;;;;5054824;28;20028;-77
2022/03/23 06:31:32;;;;;;;9.75;2.03;;;22.10;99.90;;;;;;5056104;28;20025;-78
2022/03/23 06:34:00;;;;;;;11.90;2.83;;;22.00;99.90;;;;;;5054419;28;20032;-78
2022/03/23 06:36:27;;;;;;;11.90;2.53;;;22.00;99.90;;;;;;5058145;28;20389;-78
2022/03/23 06:38:55;;;;;;;15.93;2.45;;;21.90;99.90;;;;;;5055768;28;20021;-78
2022/03/23 06:41:22;;;;;;;11.82;1.88;;;21.80;99.90;;;;;;5056193;28;20040;-78
2022/03/23 06:43:49;;;;;;;13.90;2.42;;;21.70;99.90;;;;;;5053617;28;20028;-78
2022/03/23 06:46:17;;;;;;;9.82;1.90;;;21.60;99.90;;;;;;5056099;28;20095;-78
2022/03/23 06:48:47;;;;;;;12.25;2.05;;;21.50;99.90;;;;;;5055222;28;20060;-78
2022/03/23 06:51:15;;;;;;;9.73;2.20;;;21.40;99.90;;;;;;5054523;28;20048;-77
2022/03/23 06:53:43;;;;;;;11.52;2.30;;;21.40;99.90;;;;;;5054685;28;20049;-77
2022/03/23 06:56:10;;;;;;;12.00;2.42;;;21.40;99.90;;;;;;5055691;28;20492;-77
2022/03/23 06:58:38;;;;;;;9.82;2.40;;;21.40;99.90;;;;;;5054379;28;20028;-77
2022/03/23 07:01:06;;;;;;;12.25;2.33;;;21.40;99.90;;;;;;5055458;28;20025;-77
2022/03/23 07:03:33;;;;;;;12.38;2.05;;;21.40;99.90;;;;;;5054381;28;20068;-78
2022/03/23 07:06:01;;;;;;;17.65;2.95;;;21.40;99.90;;;;;;5054168;28;20033;-76
2022/03/23 07:11:34;;;;;;;13.60;2.83;;;21.50;99.90;;;;;;4996238;28;20502;-77
2022/03/23 07:14:03;;;;;;;15.63;2.63;;;21.50;99.90;;;;;;4977864;28;20102;-77
2022/03/23 07:16:30;;;;;;;12.27;1.80;;;21.50;99.90;;;;;;5025992;28;20045;-77
2022/03/23 07:18:57;;;;;;;17.00;2.67;;;21.50;99.90;;;;;;5057844;28;20035;-76
2022/03/23 07:21:25;;;;;;;13.18;2.33;;;21.40;99.90;;;;;;5057526;28;20025;-75
2022/03/23 07:23:52;;;;;;;12.25;2.20;;;21.40;99.90;;;;;;5058382;28;20162;-76
2022/03/23 07:26:21;;;;;;;11.77;2.50;;;21.40;99.90;;;;;;5054137;28;20024;-76
2022/03/23 07:28:49;;;;;;;13.93;2.42;;;21.40;99.90;;;;;;5052774;28;20056;-76
2022/03/23 07:31:16;;;;;;;11.45;2.42;;;21.40;99.90;;;;;;5054686;28;20102;-75
2022/03/23 07:33:43;;;;;;;13.23;2.65;;;21.30;99.90;;;;;;5055225;28;20089;-76
2022/03/23 07:36:12;;;;;;;16.40;2.55;;;21.30;99.90;;;;;;5055344;28;20106;-75
2022/03/23 07:38:40;;;;;;;17.40;3.05;;;21.30;99.90;;;;;;5055197;28;20113;-76
2022/03/23 07:41:07;;;;;;;12.40;2.55;;;21.20;99.90;;;;;;5054185;28;20040;-76
2022/03/23 07:43:35;;;;;;;13.77;2.20;;;21.30;99.90;;;;;;5054125;28;20032;-77
2022/03/23 07:46:02;;;;;;;13.27;2.30;;;21.30;99.90;;;;;;5054003;28;20029;-77
2022/03/23 07:48:30;;;;;;;16.08;2.47;;;21.30;99.90;;;;;;5053987;28;20029;-77
2022/03/23 07:50:57;;;;;;;14.25;2.47;;;21.20;99.90;;;;;;5052232;28;20485;-76
2022/03/23 07:53:24;;;;;;;12.98;2.50;;;21.20;99.90;;;;;;5052022;28;20120;-77
2022/03/23 07:55:52;;;;;;;13.23;2.47;;;21.20;99.90;;;;;;5052193;28;20071;-76
2022/03/23 07:58:19;;;;;;;11.18;2.45;;;21.10;99.90;;;;;;5053161;28;20025;-76
2022/03/23 08:00:47;;;;;;;19.02;3.00;;;21.10;99.90;;;;;;5052236;28;20029;-76
2022/03/23 08:03:15;;;;;;;10.15;2.45;;;21.00;99.90;;;;;;5051747;28;20049;-76
2022/03/23 08:05:45;;;;;;;15.02;2.45;;;20.90;99.90;;;;;;5051868;28;20032;-76
2022/03/23 08:08:13;;;;;;;15.38;2.72;;;20.80;99.90;;;;;;5051821;28;20120;-76
2022/03/23 08:10:42;;;;;;;14.88;3.05;;;20.70;99.90;;;;;;5052795;28;20032;-76
2022/03/23 08:13:12;;;;;;;17.00;4.10;;;20.60;99.90;;;;;;5052972;28;20028;-76
2022/03/23 08:15:40;;;;;;;22.53;3.80;;;20.60;99.90;;;;;;5052848;28;20036;-76
2022/03/23 08:18:08;;;;;;;17.42;3.63;;;20.60;99.90;;;;;;5052854;28;20131;-76
2022/03/23 08:20:36;;;;;;;15.02;3.42;;;20.50;99.90;;;;;;5051695;28;20063;-76
2022/03/23 08:23:09;;;;;;;12.18;3.33;;;20.50;99.90;;;;;;5051618;28;20036;-75
2022/03/23 08:25:41;;;;;;;17.05;3.58;;;20.50;99.90;;;;;;5052147;28;20017;-78
2022/03/23 08:28:14;;;;;;;15.23;3.72;;;20.60;99.90;;;;;;5051371;28;20024;-78
2022/03/23 08:30:43;;;;;;;18.15;3.00;;;20.50;99.90;;;;;;5051369;28;20052;-80
2022/03/23 08:33:10;;;;;;;18.30;3.58;;;20.50;99.90;;;;;;5052675;28;20385;-78
2022/03/23 08:35:39;;;;;;;16.23;3.33;;;20.50;99.90;;;;;;5051415;28;20036;-79
2022/03/23 08:38:09;;;;;;;15.45;3.47;;;20.50;99.90;;;;;;5051675;28;20073;-79
2022/03/23 08:40:37;;;;;;;19.02;3.35;;;20.60;99.90;;;;;;5051443;28;20028;-79
2022/03/23 08:43:04;;;;;;;15.70;2.97;;;20.60;99.90;;;;;;5052356;28;20037;-79
2022/03/23 08:45:32;;;;;;;19.70;3.65;;;20.60;99.90;;;;;;5050999;28;20135;-79
2022/03/23 08:48:02;;;;;;;22.73;3.55;;;20.60;99.90;;;;;;5050817;28;20082;-79
2022/03/23 08:50:30;;;;;;;18.50;4.25;;;20.60;99.90;;;;;;5050774;28;20032;-79
2022/03/23 08:52:58;;;;;;;16.05;3.22;;;20.60;99.90;;;;;;5050841;28;20041;-79
2022/03/23 08:55:25;;;;;;;17.48;3.50;;;20.60;99.90;;;;;;5050617;28;20029;-78
2022/03/23 08:57:53;;;;;;;19.38;3.92;;;20.50;99.90;;;;;;5052132;28;20029;-79
2022/03/23 09:00:21;;;;;;;15.77;3.35;;;20.60;99.90;;;;;;5050593;28;20028;-78
2022/03/23 09:02:48;;;;;;;20.70;3.75;;;20.60;99.90;;;;;;5050373;28;20404;-78
2022/03/23 09:05:16;;;;;;;14.43;2.92;;;20.50;99.90;;;;;;5052107;28;20052;-78
2022/03/23 09:07:43;;;;;;;17.65;3.22;;;20.50;99.90;;;;;;5052177;28;20473;-78
2022/03/23 09:10:13;;;;;;;14.93;3.25;;;20.50;99.90;;;;;;5052322;28;20512;-78
2022/03/23 09:12:42;;;;;;;20.13;3.00;;;20.50;99.90;;;;;;5052326;28;20025;-79
2022/03/23 09:15:12;;;;;;;18.30;3.47;;;20.50;99.90;;;;;;5050972;28;20486;-79
2022/03/23 09:17:40;;;;;;;16.15;3.47;;;20.40;99.90;;;;;;5052160;28;20261;-79
2022/03/23 09:20:09;;;;;;;17.35;3.10;;;20.40;99.90;;;;;;5051922;28;20025;-80
2022/03/23 09:22:44;;;;;;;17.95;2.88;;;20.40;99.90;;;;;;5052920;28;20083;-80
2022/03/23 09:25:14;;;;;;;21.48;4.07;;;20.30;99.90;;;;;;5052313;28;20032;-80
2022/03/23 09:27:43;;;;;;;17.85;3.92;;;20.40;99.90;;;;;;5052140;28;20017;-80
2022/03/23 09:30:13;;;;;;;16.20;4.23;;;20.40;99.90;;;;;;5050944;28;20480;-79
2022/03/23 09:32:42;;;;;;;15.80;2.60;;;20.40;99.90;;;;;;5050692;28;20124;-79
2022/03/23 09:35:10;;;;;;;23.73;4.05;;;20.40;99.90;;;;;;5052131;28;20029;-79
2022/03/23 09:37:50;;;;;;;18.95;4.15;;;20.40;99.90;;;;;;5054584;28;20424;-79
2022/03/23 09:40:19;;;;;;;17.73;3.78;;;20.40;99.90;;;;;;5054650;28;20025;-79
2022/03/23 09:42:48;;;;;;;15.77;3.17;;;20.40;99.90;;;;;;5056053;28;20071;-79
2022/03/23 09:45:34;;;;;;;18.98;3.83;;;20.40;99.90;;;;;;5056258;28;20577;-79
2022/03/23 09:48:05;;;;;;;18.60;3.53;;;20.40;99.90;;;;;;5053971;28;20086;-78
2022/03/23 09:50:36;;;;;;;20.02;3.47;;;20.40;99.90;;;;;;5055677;28;20370;-80
2022/03/23 09:53:04;;;;;;;22.25;4.43;;;20.30;99.90;;;;;;5054359;28;20468;-80
2022/03/23 09:55:33;;;;;;;21.50;3.45;;;20.30;99.90;;;;;;5054151;28;20409;-78
2022/03/23 09:58:06;;;;;;;14.77;3.30;;;20.30;99.90;;;;;;5037774;28;20051;-79
2022/03/23 10:00:44;;;;;;;18.10;4.05;;;20.30;99.90;;;;;;5055467;28;20021;-79
2022/03/23 10:03:17;;;;;;;17.40;3.40;;;20.30;99.90;;;;;;5053983;28;20087;-79
2022/03/23 10:06:02;;;;;;;19.58;3.50;;;20.30;99.90;;;;;;5054016;28;20025;-79
2022/03/23 10:08:48;;;;;;;17.88;3.53;;;20.30;99.90;;;;;;5055529;28;20017;-79
2022/03/23 10:11:48;;;;;;;17.95;3.67;;;20.30;99.90;;;;;;5054052;28;20477;-79
2022/03/23 10:14:31;;;;;;;19.77;3.70;;;20.30;99.90;;;;;;5054211;28;20074;-80
2022/03/23 10:17:43;;;;;;;15.38;3.72;;;20.40;99.90;;;;;;5053976;28;20029;-79
2022/03/23 10:20:14;;;;;;;20.85;4.75;;;20.40;99.90;;;;;;5053877;28;20060;-78
2022/03/23 10:22:49;;;;;;;19.73;4.18;;;20.40;99.90;;;;;;5053609;28;20033;-78
2022/03/23 10:25:19;;;;;;;19.63;4.38;;;20.40;99.90;;;;;;5054954;28;20021;-79
2022/03/23 10:27:47;;;;;;;16.55;4.03;;;20.60;99.90;;;;;;5053616;28;20108;-79
2022/03/23 10:30:31;;;;;;;18.63;3.45;;;20.50;99.90;;;;;;5055295;28;20025;-80
2022/03/23 10:32:58;;;;;;;19.45;4.10;;;20.50;99.90;;;;;;5053585;28;20021;-79
2022/03/23 10:35:42;;;;;;;16.80;3.17;;;20.50;99.90;;;;;;5054835;28;20493;-79
2022/03/23 10:38:21;;;;;;;20.95;3.47;;;20.50;99.90;;;;;;5054959;28;20544;-80
2022/03/23 10:40:50;;;;;;;13.60;3.40;;;20.50;99.90;;;;;;5054792;28;20025;-80
2022/03/23 10:43:23;;;;;;;18.27;3.10;;;20.60;99.90;;;;;;5054794;28;20060;-80
2022/03/23 10:45:51;;;;;;;14.57;2.78;;;20.50;99.90;;;;;;5053379;28;20547;-80
2022/03/23 10:48:20;;;;;;;18.20;3.67;;;20.50;99.90;;;;;;5052329;28;20032;-80
2022/03/23 10:50:52;;;;;;;20.27;3.40;;;20.50;99.90;;;;;;5054602;28;20017;-79
2022/03/23 10:53:38;;;;;;;16.05;3.30;;;20.50;99.90;;;;;;5054533;28;20017;-79
2022/03/23 10:56:06;;;;;;;19.35;3.42;;;20.50;99.90;;;;;;5053101;28;20105;-80
2022/03/23 10:58:35;;;;;;;14.43;2.72;;;20.50;99.90;;;;;;5054397;28;20496;-80
2022/03/23 11:01:07;;;;;;;15.82;2.88;;;20.50;99.90;;;;;;5054361;28;20017;-80
2022/03/23 11:03:42;;;;;;;17.77;3.78;;;20.60;99.90;;;;;;5054168;28;20041;-80
2022/03/23 11:06:12;;;;;;;16.50;2.95;;;20.60;99.90;;;;;;5054431;28;20485;-79
2022/03/23 11:08:44;;;;;;;20.08;3.40;;;20.60;99.90;;;;;;5036330;28;20021;-80
2022/03/23 11:16:55;;;;;;;18.95;3.70;;;20.70;99.90;;;;;;5053111;28;20029;-80
2022/03/23 11:19:26;;;;;;;16.08;2.80;;;20.70;99.90;;;;;;5052745;28;20029;-79
2022/03/23 11:22:14;;;;;;;24.23;3.50;;;20.70;99.90;;;;;;5053915;28;20029;-80
2022/03/23 11:24:45;;;;;;;13.20;2.97;;;20.70;99.90;;;;;;5053960;28;20040;-80
2022/03/23 11:27:18;;;;;;;18.10;3.10;;;20.60;99.90;;;;;;5054012;28;20044;-79
2022/03/23 11:29:48;;;;;;;15.63;3.00;;;20.70;99.90;;;;;;5052563;28;20025;-80
2022/03/23 11:32:19;;;;;;;22.95;2.95;;;20.70;99.90;;;;;;5053882;28;20025;-81
2022/03/23 11:34:51;;;;;;;17.52;2.92;;;20.70;99.90;;;;;;5036040;28;20033;-80
2022/03/23 11:37:21;;;;;;;13.95;2.60;;;20.70;99.90;;;;;;5052689;28;20060;-79
2022/03/23 11:39:53;;;;;;;16.35;2.78;;;20.70;99.90;;;;;;5052335;28;20029;-80
2022/03/23 11:42:22;;;;;;;13.80;2.78;;;20.70;99.90;;;;;;5053502;28;20481;-80
2022/03/23 11:44:50;;;;;;;17.35;3.65;;;20.70;99.90;;;;;;5052240;28;20390;-80
2022/03/23 11:47:29;;;;;;;14.80;2.70;;;20.70;99.90;;;;;;5052239;28;20561;-80
2022/03/23 11:50:11;;;;;;;18.48;4.13;;;20.70;99.90;;;;;;5052184;28;20029;-80
2022/03/23 11:52:43;;;;;;;20.98;3.35;;;20.70;99.90;;;;;;5052136;28;20029;-79
2022/03/23 11:55:38;;;;;;;12.93;2.30;;;20.70;99.90;;;;;;5053517;28;20021;-79
2022/03/23 11:58:21;;;;;;;14.18;3.10;;;20.70;99.90;;;;;;5053241;28;20051;-79
2022/03/23 12:00:56;;;;;;;15.35;3.17;;;20.70;99.90;;;;;;5053229;28;20021;-79
2022/03/23 12:03:42;;;;;;;12.95;2.88;;;20.70;99.90;;;;;;5051620;28;20073;-79
2022/03/23 12:06:36;;;;;;;18.58;4.28;;;20.70;99.90;;;;;;5053095;28;20021;-79
2022/03/23 12:09:04;;;;;;;17.13;3.33;;;20.70;99.90;;;;;;5048001;28;20120;-79
2022/03/23 12:11:46;;;;;;;14.88;3.70;;;20.80;99.90;;;;;;5053630;28;20024;-79
2022/03/23 12:14:28;;;;;;;14.43;3.08;;;20.80;99.90;;;;;;5054016;28;20078;-78
2022/03/23 12:16:55;;;;;;;15.25;3.08;;;20.80;99.90;;;;;;5053045;28;20078;-79
2022/03/23 12:19:28;;;;;;;16.52;2.70;;;20.80;99.90;;;;;;5051710;28;20037;-80
2022/03/23 12:22:16;;;;;;;12.32;2.40;;;20.70;99.90;;;;;;5051280;28;20029;-79
2022/03/23 12:25:15;;;;;;;15.70;2.92;;;20.70;99.90;;;;;;5052809;28;20040;-80
2022/03/23 12:28:20;;;;;;;14.98;2.80;;;20.80;99.90;;;;;;5052825;28;20025;-79
2022/03/23 12:31:10;;;;;;;12.52;2.38;;;20.80;99.90;;;;;;5033817;28;20033;-80
2022/03/23 12:34:00;;;;;;;14.23;3.05;;;20.80;99.90;;;;;;5052749;28;20025;-80
2022/03/23 12:39:23;;;;;;;;;;;20.70;99.90;;;;;;5053372;28;20043;-80
2022/03/23 12:41:50;;;;;;;20.98;4.25;;;20.70;99.90;;;;;;5051266;28;19985;-80
2022/03/23 12:44:27;;;;;;;10.45;2.10;;;20.70;99.90;;;;;;5051607;28;20367;-79
2022/03/23 12:46:55;;;;;;;13.27;2.50;;;20.70;99.90;;;;;;5051102;28;20539;-81
2022/03/23 12:58:10;;;;;;;15.10;3.22;;;20.30;99.90;;;;;;5052614;28;20032;-80
2022/03/23 13:00:39;;;;;;;16.13;2.83;;;20.30;99.90;;;;;;5052783;28;20381;-80
2022/03/23 13:03:06;;;;;;;12.35;2.13;;;20.20;99.90;;;;;;5052452;28;20081;-80
2022/03/23 13:05:38;;;;;;;10.52;2.40;;;20.20;99.90;;;;;;5053470;28;20519;-80
2022/03/23 13:08:47;;;;;;;17.50;2.63;;;20.20;99.90;;;;;;5051900;28;20028;-80
2022/03/23 13:11:21;;;;;;;15.50;2.63;;;20.30;99.90;;;;;;5033386;28;20041;-80
2022/03/23 13:13:51;;;;;;;13.40;2.90;;;20.30;99.90;;;;;;5055097;28;20511;-80
2022/03/23 13:16:24;;;;;;;12.55;2.60;;;20.30;99.90;;;;;;5056377;28;20067;-80
2022/03/23 13:18:56;;;;;;;15.55;2.80;;;20.30;99.90;;;;;;5055127;28;20096;-80
2022/03/23 13:21:25;;;;;;;17.40;2.80;;;20.30;99.90;;;;;;5056678;28;20028;-80